Hockessin, Delaware
Current Conditions -  °F | °C
As of 9:51 PM on Thursday 18 Dec 2014 (Local Time) from KILG Reporting Station
Overcast Overcast  
Wind Chill: 30°   Ceiling: 3200
Heat Index: 37°   Visibility: 10mi
Dew Point: 25°   Wind: 9mph
Humidity: 62%   Direction: 290°WNW
Pressure: 30.08"   Gusts: NA
Location:  39.79°N, 75.69°W
Report Text: KILG 190251Z AUTO 29008KT 10SM OVC032 03/M04 A3008 RMK AO2 SLP185 T00281039 50002
Loading
Personal Weather Stations






























Interactive Weather Map New forecast layout! Learn more

10-Day Weather Forecast

Advertisements
Track Severe Weather on mobile